ETND

Diepholz Airport

Diepholz, Germany
METAR ETND 190720Z 09004KT 9999 SCT070 19/11 Q1019 BLU+
Observed Flight Rules
Jul-19 @ 07:20 UTC (21 minutes ago) Visual Flight Rules
Wind Visibility Clouds
90° at 4 knots 10,000+ meters
  • Scattered at 7,000' AGL
Temperatures Readings
Current 19°C / 66°F
Dewpoint 11°C / 52°F
Humidity 60%
Altimeter 30.09" Hg
Pressure 1019 hPa
Elevation 43
METAR ETND 190720Z 09004KT 9999 SCT070 19/11 Q1019 BLU+
Observed Flight Rules
Jul-19 @ 07:20 UTC
(21 minutes ago)
VFR
Wind Visibility
90° at 4 knots 10,000+ meters
Clouds
  • Scattered at 7,000' AGL
Temperature Dewpoint
19°C / 66°F 11°C / 52°F
Humidity Altimeter Pressure
60% 30.09" Hg 1019 hPa